It's Thursday,
December 12th, 2019
User not logged in
[Run Race Header Image][Run Race logo]
  
Race webcasting is attempted by race directors and their support staff. Please remember that conditions under which they're working may make it difficult to post timely webcast updates... your interest and patience is appreciated!
Race Information
Race Name:Kettle 100 Endurance Runs - 2017
Location:LaGrange
State:Wisconsin, United States
 button: button: Webcast Autoplay
Event Information
Name of Event:Kettle 100m solo
Distance:100 Miles
Started Date/Time:Saturday June 3rd, 2017, 6:02:18.49 am
button: Assign Numbers 

Event Information
Name of Event:Kettle 100k solo
Distance:100 Kilometers
Started Date/Time:Saturday June 3rd, 2017, 6:02:18.49 am
button: Assign Numbers  
Checkpoint:Nordic Center Start
Distance:0 Miles
Gun Start Time:Saturday June 3rd, 2017 6:02:18.49 am
Calculate Chip Start Time:< not set >
Y or N... Calculate splits based upon participant chip start time?
Allow Early Chip Start Time:< not set >
Y or N... Allow participants a chip start time prior to gun start?
Pos Race
Number
NameAgeSexTime
1487Cory Logsdon29M1.69 secondsSat Jun 3rd, 2017 6:02:20.18 am
2446PATRICK CAMPBELL57M2.14 secondsSat Jun 3rd, 2017 6:02:20.63 am
3470Blake Trotter39M2.42 secondsSat Jun 3rd, 2017 6:02:20.91 am
4499Terry Jarrell56M2.64 secondsSat Jun 3rd, 2017 6:02:21.13 am
5491Andrew Owings41M2.69 secondsSat Jun 3rd, 2017 6:02:21.18 am
6423Thomas Hope47M3.26 secondsSat Jun 3rd, 2017 6:02:21.75 am
7486Mika Thewes26F3.55 secondsSat Jun 3rd, 2017 6:02:22.04 am
8416Walt Jedzejec36M3.65 secondsSat Jun 3rd, 2017 6:02:22.14 am
9493Jason Krezinski44M4.1 secondsSat Jun 3rd, 2017 6:02:22.59 am
10425Jordan LaFreniere34M4.13 secondsSat Jun 3rd, 2017 6:02:22.62 am
11497Jacob Pellmann28M4.48 secondsSat Jun 3rd, 2017 6:02:22.97 am
12503Yanzi Liu38F4.78 secondsSat Jun 3rd, 2017 6:02:23.27 am
13494Frank Alessandrini29M5.39 secondsSat Jun 3rd, 2017 6:02:23.88 am
14474Juli Aistars58F6.19 secondsSat Jun 3rd, 2017 6:02:24.68 am
15480Avi Janssen46M6.43 secondsSat Jun 3rd, 2017 6:02:24.92 am
16501William Hutchinson47M6.5 secondsSat Jun 3rd, 2017 6:02:24.99 am
17408Lee OKSIUTA36M6.67 secondsSat Jun 3rd, 2017 6:02:25.16 am
18419Adam Stoddard44M6.87 secondsSat Jun 3rd, 2017 6:02:25.36 am
19420Ray Johnson38M7.1 secondsSat Jun 3rd, 2017 6:02:25.59 am
20459Ross Salinas36M7.15 secondsSat Jun 3rd, 2017 6:02:25.64 am
21458Kathy Muehlbauer43F7.43 secondsSat Jun 3rd, 2017 6:02:25.92 am
22467Rob Goeckermann38M7.45 secondsSat Jun 3rd, 2017 6:02:25.94 am
23525Daniel Goeckermann36M7.56 secondsSat Jun 3rd, 2017 6:02:26.05 am
24520Ray Liberatore29M7.92 secondsSat Jun 3rd, 2017 6:02:26.41 am
25442Colleen MacDonald34F8.5 secondsSat Jun 3rd, 2017 6:02:26.99 am
26508Gladys Najar49F8.52 secondsSat Jun 3rd, 2017 6:02:27.01 am
27489Jim Street55M8.85 secondsSat Jun 3rd, 2017 6:02:27.34 am
28518Matthew Condron50M9.47 secondsSat Jun 3rd, 2017 6:02:27.96 am
29492Vikash Malik34M9.62 secondsSat Jun 3rd, 2017 6:02:28.11 am
30515David Curtin42M9.7 secondsSat Jun 3rd, 2017 6:02:28.19 am
31511Mason Grundy23M10.01 secondsSat Jun 3rd, 2017 6:02:28.5 am
32455Heidi Hasapopoulos37F10.4 secondsSat Jun 3rd, 2017 6:02:28.89 am
33510Henry Southgate36M10.6 secondsSat Jun 3rd, 2017 6:02:29.09 am
34523Paul Shimondle65M10.72 secondsSat Jun 3rd, 2017 6:02:29.21 am
35404Ken Hannah43M11.43 secondsSat Jun 3rd, 2017 6:02:29.92 am
36524Robert Fredenhagen26M11.54 secondsSat Jun 3rd, 2017 6:02:30.03 am
37481Kirsten Pieper46F12.01 secondsSat Jun 3rd, 2017 6:02:30.5 am
38400Nicole Pence31F12.08 secondsSat Jun 3rd, 2017 6:02:30.57 am
39437Marta Borkowska39F12.13 secondsSat Jun 3rd, 2017 6:02:30.62 am
40498DAVID BITNER40M12.15 secondsSat Jun 3rd, 2017 6:02:30.64 am
41402jon hendren55M12.96 secondsSat Jun 3rd, 2017 6:02:31.45 am
42496Magdalena Casper-Shipp31F14.1 secondsSat Jun 3rd, 2017 6:02:32.59 am
43436Michael Wingertsahn28M14.21 secondsSat Jun 3rd, 2017 6:02:32.7 am
44465Phil Strong37M17.02 secondsSat Jun 3rd, 2017 6:02:35.51 am
45462James Feeny39M17.49 secondsSat Jun 3rd, 2017 6:02:35.98 am
46440Andy Nordeen59M18.86 secondsSat Jun 3rd, 2017 6:02:37.35 am
47522Michael Younglove57M19.08 secondsSat Jun 3rd, 2017 6:02:37.57 am
48429Tony Baker49M19.25 secondsSat Jun 3rd, 2017 6:02:37.74 am
49517Andrea Hutchins40F19.49 secondsSat Jun 3rd, 2017 6:02:37.98 am
50403Tom Burrell46M20 secondsSat Jun 3rd, 2017 6:02:38.49 am
51452William Jackson54M20.08 secondsSat Jun 3rd, 2017 6:02:38.57 am
52456Rob Schmitter51M20.21 secondsSat Jun 3rd, 2017 6:02:38.7 am
53449Ric Angara46M21.02 secondsSat Jun 3rd, 2017 6:02:39.51 am
54432Rick Sperko46M21.61 secondsSat Jun 3rd, 2017 6:02:40.1 am
55450Betsy Rogers53F21.69 secondsSat Jun 3rd, 2017 6:02:40.18 am
56430ronghui wang49M21.83 secondsSat Jun 3rd, 2017 6:02:40.32 am
57441Mark Kaczmarek60M22.08 secondsSat Jun 3rd, 2017 6:02:40.57 am
58431Ezequiel Fernandez42M22.96 secondsSat Jun 3rd, 2017 6:02:41.45 am
59512Steven Nguyen27M23.82 secondsSat Jun 3rd, 2017 6:02:42.31 am
60453Jaime Hardgrove37F24.05 secondsSat Jun 3rd, 2017 6:02:42.54 am
61526Brandon Becker40M24.4 secondsSat Jun 3rd, 2017 6:02:42.89 am
62401Thomas Owenby38M24.81 secondsSat Jun 3rd, 2017 6:02:43.3 am
63434Jing Geng51M25.74 secondsSat Jun 3rd, 2017 6:02:44.23 am
64495Michael Krattley53M27.09 secondsSat Jun 3rd, 2017 6:02:45.58 am
65435Jen Birkner46F27.4 secondsSat Jun 3rd, 2017 6:02:45.89 am
66475Elizabeth Coll54F27.55 secondsSat Jun 3rd, 2017 6:02:46.04 am
67405Lauro Perez42M28.65 secondsSat Jun 3rd, 2017 6:02:47.14 am
68460Jeffrey Bruzek42M29.88 secondsSat Jun 3rd, 2017 6:02:48.37 am
69468Mark Martinsen53M30.64 secondsSat Jun 3rd, 2017 6:02:49.13 am
70505Christopher Tebeau46M31.07 secondsSat Jun 3rd, 2017 6:02:49.56 am
71471Sarah Hauge38F31.33 secondsSat Jun 3rd, 2017 6:02:49.82 am
72457Dan McArdle33M32.33 secondsSat Jun 3rd, 2017 6:02:50.82 am
73426Bob Pilmer59M32.71 secondsSat Jun 3rd, 2017 6:02:51.2 am
74514Dennis Strenk45M32.72 secondsSat Jun 3rd, 2017 6:02:51.21 am
75485Gail Zielinski49F34.36 secondsSat Jun 3rd, 2017 6:02:52.85 am
76461Liz Baumgardt36F35.91 secondsSat Jun 3rd, 2017 6:02:54.4 am
77473Stephen Bedrin40M36.93 secondsSat Jun 3rd, 2017 6:02:55.42 am
78464Stephen Strawn34M38.83 secondsSat Jun 3rd, 2017 6:02:57.32 am
79410Jake Winder29M39.22 secondsSat Jun 3rd, 2017 6:02:57.71 am
80504Josh Stebbins30M39.74 secondsSat Jun 3rd, 2017 6:02:58.23 am
81439Amanda Laughead44F39.78 secondsSat Jun 3rd, 2017 6:02:58.27 am
82500Irene Kok46F40.33 secondsSat Jun 3rd, 2017 6:02:58.82 am
83415Trudi Schoening38F42.22 secondsSat Jun 3rd, 2017 6:03:00.71 am
84466Tiffany Campbell44F42.43 secondsSat Jun 3rd, 2017 6:03:00.92 am
85532Nelson Zacarias46M42.67 secondsSat Jun 3rd, 2017 6:03:01.16 am
86422Sean Wyatt45M45.24 secondsSat Jun 3rd, 2017 6:03:03.73 am
87516Tony Cesario53M45.9 secondsSat Jun 3rd, 2017 6:03:04.39 am
88411Susan Smock39F46.21 secondsSat Jun 3rd, 2017 6:03:04.7 am
89412Brian Smock50M46.46 secondsSat Jun 3rd, 2017 6:03:04.95 am
90479Alex Fox30M47.08 secondsSat Jun 3rd, 2017 6:03:05.57 am
91447Andrea Odrzywolski44F47.88 secondsSat Jun 3rd, 2017 6:03:06.37 am
92413Katie Zopf38F48.25 secondsSat Jun 3rd, 2017 6:03:06.74 am
93519Brenda Bland57F51.67 secondsSat Jun 3rd, 2017 6:03:10.16 am
94476Wayne Nelson51M52.19 secondsSat Jun 3rd, 2017 6:03:10.68 am
95477Linda Britz47F52.57 secondsSat Jun 3rd, 2017 6:03:11.06 am
96488Lucy Burke42F52.89 secondsSat Jun 3rd, 2017 6:03:11.38 am
97507Tim Hanson46M53.15 secondsSat Jun 3rd, 2017 6:03:11.64 am
98506jason kumlien47M53.68 secondsSat Jun 3rd, 2017 6:03:12.17 am
99417Dan Hibbard46M57.64 secondsSat Jun 3rd, 2017 6:03:16.13 am
100438Jason Jeffers44M57.94 secondsSat Jun 3rd, 2017 6:03:16.43 am

Event Information
Name of Event:Kettle 100 relay
Distance:100 Miles
Started Date/Time:Saturday June 3rd, 2017, 6:02:18.49 am
button: Assign Numbers 

Event Information
Name of Event:Kettle 50 km solo
Distance:50 Kilometers
Started Date/Time:Saturday June 3rd, 2017, 1:00:00.49 pm
button: Assign Numbers 

Event Information
Name of Event:Kettle 38 night fun run
Distance:38 Miles
Started Date/Time:Saturday June 3rd, 2017, 5:23:22.00 pm
button: Assign Numbers 
2004-2019 : All rights reserved
Terms and Conditions